sensor_id;sensor_type;location;lat;lon;timestamp;temperature;humidity
20862;DHT22;10591;52.532;13.348;2023-06-26T00:00:52;21.02;75.38
20862;DHT22;10591;52.532;13.348;2023-06-26T00:03:23;21.02;75.31
20862;DHT22;10591;52.532;13.348;2023-06-26T00:05:53;21.01;75.55
20862;DHT22;10591;52.532;13.348;2023-06-26T00:08:25;21.01;75.54
20862;DHT22;10591;52.532;13.348;2023-06-26T00:10:55;21.17;74.44
20862;DHT22;10591;52.532;13.348;2023-06-26T00:13:26;21.37;73.56
20862;DHT22;10591;52.532;13.348;2023-06-26T00:15:58;21.22;74.42
20862;DHT22;10591;52.532;13.348;2023-06-26T00:18:30;21.17;74.22
20862;DHT22;10591;52.532;13.348;2023-06-26T00:21:00;21.08;74.46
20862;DHT22;10591;52.532;13.348;2023-06-26T00:23:31;21.05;74.50
20862;DHT22;10591;52.532;13.348;2023-06-26T00:26:05;21.06;74.53
20862;DHT22;10591;52.532;13.348;2023-06-26T00:28:35;21.10;74.62
20862;DHT22;10591;52.532;13.348;2023-06-26T00:31:06;20.99;74.81
20862;DHT22;10591;52.532;13.348;2023-06-26T00:33:36;21.00;74.98
20862;DHT22;10591;52.532;13.348;2023-06-26T00:36:07;20.99;74.89
20862;DHT22;10591;52.532;13.348;2023-06-26T00:38:37;20.87;75.17
20862;DHT22;10591;52.532;13.348;2023-06-26T00:41:08;20.90;75.15
20862;DHT22;10591;52.532;13.348;2023-06-26T00:43:40;20.97;74.97
20862;DHT22;10591;52.532;13.348;2023-06-26T00:46:13;20.87;74.98
20862;DHT22;10591;52.532;13.348;2023-06-26T00:48:45;20.88;74.66
20862;DHT22;10591;52.532;13.348;2023-06-26T00:51:16;21.08;74.29
20862;DHT22;10591;52.532;13.348;2023-06-26T00:53:48;21.12;74.19
20862;DHT22;10591;52.532;13.348;2023-06-26T00:56:20;21.06;74.53
20862;DHT22;10591;52.532;13.348;2023-06-26T00:58:50;21.08;74.15
20862;DHT22;10591;52.532;13.348;2023-06-26T01:01:21;21.02;74.25
20862;DHT22;10591;52.532;13.348;2023-06-26T01:03:53;21.04;74.20
20862;DHT22;10591;52.532;13.348;2023-06-26T01:06:28;21.10;74.13
20862;DHT22;10591;52.532;13.348;2023-06-26T01:09:01;21.14;74.30
20862;DHT22;10591;52.532;13.348;2023-06-26T01:11:32;21.15;74.09
20862;DHT22;10591;52.532;13.348;2023-06-26T01:14:03;21.20;73.66
20862;DHT22;10591;52.532;13.348;2023-06-26T01:16:34;21.20;73.74
20862;DHT22;10591;52.532;13.348;2023-06-26T01:19:10;21.17;73.38
20862;DHT22;10591;52.532;13.348;2023-06-26T01:21:43;21.16;73.62
20862;DHT22;10591;52.532;13.348;2023-06-26T01:24:18;21.19;73.71
20862;DHT22;10591;52.532;13.348;2023-06-26T01:26:51;21.23;73.53
20862;DHT22;10591;52.532;13.348;2023-06-26T01:29:22;21.36;73.34
20862;DHT22;10591;52.532;13.348;2023-06-26T01:31:55;21.36;73.48
20862;DHT22;10591;52.532;13.348;2023-06-26T01:34:26;21.16;73.57
20862;DHT22;10591;52.532;13.348;2023-06-26T01:36:57;21.27;73.24
20862;DHT22;10591;52.532;13.348;2023-06-26T01:39:28;21.26;73.15
20862;DHT22;10591;52.532;13.348;2023-06-26T01:41:59;21.17;73.55
20862;DHT22;10591;52.532;13.348;2023-06-26T01:44:33;21.13;73.80
20862;DHT22;10591;52.532;13.348;2023-06-26T01:47:05;21.14;73.73
20862;DHT22;10591;52.532;13.348;2023-06-26T01:49:50;21.09;73.69
20862;DHT22;10591;52.532;13.348;2023-06-26T01:52:37;21.21;73.23
20862;DHT22;10591;52.532;13.348;2023-06-26T01:55:20;21.06;73.60
20862;DHT22;10591;52.532;13.348;2023-06-26T01:57:52;21.08;73.42
20862;DHT22;10591;52.532;13.348;2023-06-26T02:00:24;21.00;73.56
20862;DHT22;10591;52.532;13.348;2023-06-26T02:02:55;21.00;73.84
20862;DHT22;10591;52.532;13.348;2023-06-26T02:05:26;21.11;73.51
20862;DHT22;10591;52.532;13.348;2023-06-26T02:07:56;20.96;73.97
20862;DHT22;10591;52.532;13.348;2023-06-26T02:10:27;21.00;73.70
20862;DHT22;10591;52.532;13.348;2023-06-26T02:12:58;21.00;73.84
20862;DHT22;10591;52.532;13.348;2023-06-26T02:15:29;21.01;74.00
20862;DHT22;10591;52.532;13.348;2023-06-26T02:17:59;21.04;73.82
20862;DHT22;10591;52.532;13.348;2023-06-26T02:20:30;20.97;74.16
20862;DHT22;10591;52.532;13.348;2023-06-26T02:23:02;21.01;74.36
20862;DHT22;10591;52.532;13.348;2023-06-26T02:25:33;20.95;75.26
20862;DHT22;10591;52.532;13.348;2023-06-26T02:28:03;20.86;75.25
20862;DHT22;10591;52.532;13.348;2023-06-26T02:30:34;21.14;74.36
20862;DHT22;10591;52.532;13.348;2023-06-26T02:33:06;21.04;74.31
20862;DHT22;10591;52.532;13.348;2023-06-26T02:35:37;21.02;74.52
20862;DHT22;10591;52.532;13.348;2023-06-26T02:38:08;21.00;74.27
20862;DHT22;10591;52.532;13.348;2023-06-26T02:40:40;20.93;74.50
20862;DHT22;10591;52.532;13.348;2023-06-26T02:43:11;20.92;74.69
20862;DHT22;10591;52.532;13.348;2023-06-26T02:45:41;21.03;74.50
20862;DHT22;10591;52.532;13.348;2023-06-26T02:48:12;20.88;74.90
20862;DHT22;10591;52.532;13.348;2023-06-26T02:50:42;20.86;74.98
20862;DHT22;10591;52.532;13.348;2023-06-26T02:53:15;20.84;74.95
20862;DHT22;10591;52.532;13.348;2023-06-26T02:55:46;20.84;75.19
20862;DHT22;10591;52.532;13.348;2023-06-26T02:58:17;20.80;75.43
20862;DHT22;10591;52.532;13.348;2023-06-26T03:00:48;20.72;75.14
20862;DHT22;10591;52.532;13.348;2023-06-26T03:03:23;20.70;75.37
20862;DHT22;10591;52.532;13.348;2023-06-26T03:05:53;20.62;75.55
20862;DHT22;10591;52.532;13.348;2023-06-26T03:08:25;20.50;75.85
20862;DHT22;10591;52.532;13.348;2023-06-26T03:10:55;20.52;75.93
20862;DHT22;10591;52.532;13.348;2023-06-26T03:13:26;20.46;76.21
20862;DHT22;10591;52.532;13.348;2023-06-26T03:15:57;20.38;76.31
20862;DHT22;10591;52.532;13.348;2023-06-26T03:18:28;20.37;76.49
20862;DHT22;10591;52.532;13.348;2023-06-26T03:20:59;20.36;76.51
20862;DHT22;10591;52.532;13.348;2023-06-26T03:23:29;20.31;76.72
20862;DHT22;10591;52.532;13.348;2023-06-26T03:26:00;20.50;76.22
20862;DHT22;10591;52.532;13.348;2023-06-26T03:28:31;20.61;76.03
20862;DHT22;10591;52.532;13.348;2023-06-26T03:31:04;20.56;75.94
20862;DHT22;10591;52.532;13.348;2023-06-26T03:33:35;20.64;75.75
20862;DHT22;10591;52.532;13.348;2023-06-26T03:36:06;20.66;75.50
20862;DHT22;10591;52.532;13.348;2023-06-26T03:38:37;20.54;75.64
20862;DHT22;10591;52.532;13.348;2023-06-26T03:41:08;20.68;75.59
20862;DHT22;10591;52.532;13.348;2023-06-26T03:43:39;20.65;75.26
20862;DHT22;10591;52.532;13.348;2023-06-26T03:46:09;20.66;75.23
20862;DHT22;10591;52.532;13.348;2023-06-26T03:48:40;20.56;75.22
20862;DHT22;10591;52.532;13.348;2023-06-26T03:51:11;20.56;75.33
20862;DHT22;10591;52.532;13.348;2023-06-26T03:53:42;20.69;75.32
20862;DHT22;10591;52.532;13.348;2023-06-26T03:56:12;20.74;74.88
20862;DHT22;10591;52.532;13.348;2023-06-26T03:58:43;20.95;74.24
20862;DHT22;10591;52.532;13.348;2023-06-26T04:01:14;20.90;74.28
20862;DHT22;10591;52.532;13.348;2023-06-26T04:03:44;21.05;74.04
20862;DHT22;10591;52.532;13.348;2023-06-26T04:06:17;21.37;72.82
20862;DHT22;10591;52.532;13.348;2023-06-26T04:08:47;21.36;72.26
20862;DHT22;10591;52.532;13.348;2023-06-26T04:11:18;21.64;71.49
20862;DHT22;10591;52.532;13.348;2023-06-26T04:13:50;21.66;70.99
20862;DHT22;10591;52.532;13.348;2023-06-26T04:16:21;21.78;70.62
20862;DHT22;10591;52.532;13.348;2023-06-26T04:18:53;22.05;69.54
20862;DHT22;10591;52.532;13.348;2023-06-26T04:21:25;21.97;69.92
20862;DHT22;10591;52.532;13.348;2023-06-26T04:23:56;21.88;69.85
20862;DHT22;10591;52.532;13.348;2023-06-26T04:26:27;21.98;69.87
20862;DHT22;10591;52.532;13.348;2023-06-26T04:28:58;22.17;69.14
20862;DHT22;10591;52.532;13.348;2023-06-26T04:31:29;22.08;69.15
20862;DHT22;10591;52.532;13.348;2023-06-26T04:34:00;21.96;69.70
20862;DHT22;10591;52.532;13.348;2023-06-26T04:36:30;21.72;70.25
20862;DHT22;10591;52.532;13.348;2023-06-26T04:39:02;21.52;70.82
20862;DHT22;10591;52.532;13.348;2023-06-26T04:41:34;21.38;71.08
20862;DHT22;10591;52.532;13.348;2023-06-26T04:44:05;21.52;70.94
20862;DHT22;10591;52.532;13.348;2023-06-26T04:46:37;21.54;70.74
20862;DHT22;10591;52.532;13.348;2023-06-26T04:49:11;21.58;70.50
20862;DHT22;10591;52.532;13.348;2023-06-26T04:51:41;21.52;70.71
20862;DHT22;10591;52.532;13.348;2023-06-26T04:54:12;21.61;70.34
20862;DHT22;10591;52.532;13.348;2023-06-26T04:56:42;21.58;70.28
20862;DHT22;10591;52.532;13.348;2023-06-26T04:59:19;21.99;69.25
20862;DHT22;10591;52.532;13.348;2023-06-26T05:01:49;22.14;68.80
20862;DHT22;10591;52.532;13.348;2023-06-26T05:04:22;22.54;67.41
20862;DHT22;10591;52.532;13.348;2023-06-26T05:06:55;22.98;65.84
20862;DHT22;10591;52.532;13.348;2023-06-26T05:09:25;22.82;66.11
20862;DHT22;10591;52.532;13.348;2023-06-26T05:12:01;23.14;65.22
20862;DHT22;10591;52.532;13.348;2023-06-26T05:14:31;23.81;63.46
20862;DHT22;10591;52.532;13.348;2023-06-26T05:17:03;23.52;63.82
20862;DHT22;10591;52.532;13.348;2023-06-26T05:19:34;23.44;64.22
20862;DHT22;10591;52.532;13.348;2023-06-26T05:22:05;23.33;64.52
20862;DHT22;10591;52.532;13.348;2023-06-26T05:24:39;22.98;65.32
20862;DHT22;10591;52.532;13.348;2023-06-26T05:27:11;22.76;66.03
20862;DHT22;10591;52.532;13.348;2023-06-26T05:29:44;22.96;65.61
20862;DHT22;10591;52.532;13.348;2023-06-26T05:32:16;22.74;66.44
20862;DHT22;10591;52.532;13.348;2023-06-26T05:34:54;22.88;66.35
20862;DHT22;10591;52.532;13.348;2023-06-26T05:37:26;22.98;66.22
20862;DHT22;10591;52.532;13.348;2023-06-26T05:40:00;22.90;66.03
20862;DHT22;10591;52.532;13.348;2023-06-26T05:42:33;23.27;65.43
20862;DHT22;10591;52.532;13.348;2023-06-26T05:45:05;23.98;63.25
20862;DHT22;10591;52.532;13.348;2023-06-26T05:47:35;26.03;58.68
20862;DHT22;10591;52.532;13.348;2023-06-26T05:50:08;27.64;53.17
20862;DHT22;10591;52.532;13.348;2023-06-26T05:52:39;29.46;49.60
20862;DHT22;10591;52.532;13.348;2023-06-26T05:55:13;30.96;45.81
20862;DHT22;10591;52.532;13.348;2023-06-26T05:57:48;32.22;43.05
20862;DHT22;10591;52.532;13.348;2023-06-26T06:00:21;33.40;39.48
20862;DHT22;10591;52.532;13.348;2023-06-26T06:02:52;34.16;39.01
20862;DHT22;10591;52.532;13.348;2023-06-26T06:05:24;33.27;40.48
20862;DHT22;10591;52.532;13.348;2023-06-26T06:07:56;33.16;40.54
20862;DHT22;10591;52.532;13.348;2023-06-26T06:10:26;34.02;39.94
20862;DHT22;10591;52.532;13.348;2023-06-26T06:12:57;33.79;39.15
20862;DHT22;10591;52.532;13.348;2023-06-26T06:15:30;33.37;40.15
20862;DHT22;10591;52.532;13.348;2023-06-26T06:18:04;33.45;39.67
20862;DHT22;10591;52.532;13.348;2023-06-26T06:20:35;32.78;40.78
20862;DHT22;10591;52.532;13.348;2023-06-26T06:23:07;33.47;40.02
20862;DHT22;10591;52.532;13.348;2023-06-26T06:25:40;33.85;39.26
20862;DHT22;10591;52.532;13.348;2023-06-26T06:28:11;34.20;39.33
20862;DHT22;10591;52.532;13.348;2023-06-26T06:30:46;35.13;36.95
20862;DHT22;10591;52.532;13.348;2023-06-26T06:33:17;34.62;37.48
20862;DHT22;10591;52.532;13.348;2023-06-26T06:35:52;35.44;35.50
20862;DHT22;10591;52.532;13.348;2023-06-26T06:38:24;33.70;38.15
20862;DHT22;10591;52.532;13.348;2023-06-26T06:40:56;32.82;39.54
20862;DHT22;10591;52.532;13.348;2023-06-26T06:43:27;32.66;40.39
20862;DHT22;10591;52.532;13.348;2023-06-26T06:45:57;32.80;38.98
20862;DHT22;10591;52.532;13.348;2023-06-26T06:48:28;34.16;37.43
20862;DHT22;10591;52.532;13.348;2023-06-26T06:50:59;33.18;38.39
20862;DHT22;10591;52.532;13.348;2023-06-26T06:53:30;32.93;38.60
20862;DHT22;10591;52.532;13.348;2023-06-26T06:56:04;32.76;38.83
20862;DHT22;10591;52.532;13.348;2023-06-26T06:58:35;33.24;38.15
20862;DHT22;10591;52.532;13.348;2023-06-26T07:01:06;32.63;38.75
20862;DHT22;10591;52.532;13.348;2023-06-26T07:03:36;32.46;39.32
20862;DHT22;10591;52.532;13.348;2023-06-26T07:06:08;31.50;41.16
20862;DHT22;10591;52.532;13.348;2023-06-26T07:08:39;30.43;43.76
20862;DHT22;10591;52.532;13.348;2023-06-26T07:11:09;28.76;46.12
20862;DHT22;10591;52.532;13.348;2023-06-26T07:13:40;28.20;47.67
20862;DHT22;10591;52.532;13.348;2023-06-26T07:16:11;27.73;50.13
20862;DHT22;10591;52.532;13.348;2023-06-26T07:18:41;27.14;49.95
20862;DHT22;10591;52.532;13.348;2023-06-26T07:21:13;27.06;50.47
20862;DHT22;10591;52.532;13.348;2023-06-26T07:23:43;26.26;52.35
20862;DHT22;10591;52.532;13.348;2023-06-26T07:26:15;26.17;52.91
20862;DHT22;10591;52.532;13.348;2023-06-26T07:28:45;25.94;54.01
20862;DHT22;10591;52.532;13.348;2023-06-26T07:31:17;26.44;51.80
20862;DHT22;10591;52.532;13.348;2023-06-26T07:33:50;26.32;52.55
20862;DHT22;10591;52.532;13.348;2023-06-26T07:36:24;26.37;52.11
20862;DHT22;10591;52.532;13.348;2023-06-26T07:39:03;26.47;52.41
20862;DHT22;10591;52.532;13.348;2023-06-26T07:41:32;26.24;52.41
20862;DHT22;10591;52.532;13.348;2023-06-26T07:44:03;26.17;54.05
20862;DHT22;10591;52.532;13.348;2023-06-26T07:46:36;26.28;52.13
20862;DHT22;10591;52.532;13.348;2023-06-26T07:49:10;26.32;52.36
20862;DHT22;10591;52.532;13.348;2023-06-26T07:51:43;26.40;52.11
20862;DHT22;10591;52.532;13.348;2023-06-26T07:54:16;26.42;52.88
20862;DHT22;10591;52.532;13.348;2023-06-26T07:57:00;26.46;53.39
20862;DHT22;10591;52.532;13.348;2023-06-26T07:59:34;26.60;51.46
20862;DHT22;10591;52.532;13.348;2023-06-26T08:02:06;26.75;49.91
20862;DHT22;10591;52.532;13.348;2023-06-26T08:04:38;26.64;49.86
20862;DHT22;10591;52.532;13.348;2023-06-26T08:07:12;26.46;51.10
20862;DHT22;10591;52.532;13.348;2023-06-26T08:09:45;26.58;50.66
20862;DHT22;10591;52.532;13.348;2023-06-26T08:12:16;26.47;51.45
20862;DHT22;10591;52.532;13.348;2023-06-26T08:14:50;26.54;52.04
20862;DHT22;10591;52.532;13.348;2023-06-26T08:17:25;26.46;51.26
20862;DHT22;10591;52.532;13.348;2023-06-26T08:19:59;26.73;49.58
20862;DHT22;10591;52.532;13.348;2023-06-26T08:22:30;26.75;48.87
20862;DHT22;10591;52.532;13.348;2023-06-26T08:25:03;26.93;48.60
20862;DHT22;10591;52.532;13.348;2023-06-26T08:27:36;27.00;47.65
20862;DHT22;10591;52.532;13.348;2023-06-26T08:30:09;26.95;47.98
20862;DHT22;10591;52.532;13.348;2023-06-26T08:32:40;27.08;47.31
20862;DHT22;10591;52.532;13.348;2023-06-26T08:35:13;26.90;47.84
20862;DHT22;10591;52.532;13.348;2023-06-26T08:37:50;26.94;49.38
20862;DHT22;10591;52.532;13.348;2023-06-26T08:40:22;26.91;48.89
20862;DHT22;10591;52.532;13.348;2023-06-26T08:42:56;27.10;48.06
20862;DHT22;10591;52.532;13.348;2023-06-26T08:45:30;27.28;47.30
20862;DHT22;10591;52.532;13.348;2023-06-26T08:48:03;27.33;47.04
20862;DHT22;10591;52.532;13.348;2023-06-26T08:50:42;27.52;46.80
20862;DHT22;10591;52.532;13.348;2023-06-26T08:56:09;27.34;46.62
20862;DHT22;10591;52.532;13.348;2023-06-26T08:58:40;27.33;45.52
20862;DHT22;10591;52.532;13.348;2023-06-26T09:01:13;27.36;45.92
20862;DHT22;10591;52.532;13.348;2023-06-26T09:03:50;27.45;46.52
20862;DHT22;10591;52.532;13.348;2023-06-26T09:06:26;27.35;47.14
20862;DHT22;10591;52.532;13.348;2023-06-26T09:08:57;27.22;47.98
20862;DHT22;10591;52.532;13.348;2023-06-26T09:11:28;27.44;46.49
20862;DHT22;10591;52.532;13.348;2023-06-26T09:13:59;27.34;45.52
20862;DHT22;10591;52.532;13.348;2023-06-26T09:16:45;27.30;48.05
20862;DHT22;10591;52.532;13.348;2023-06-26T09:19:14;27.35;48.13
20862;DHT22;10591;52.532;13.348;2023-06-26T09:21:49;27.58;45.82
20862;DHT22;10591;52.532;13.348;2023-06-26T09:24:22;27.60;45.29
20862;DHT22;10591;52.532;13.348;2023-06-26T09:26:53;27.75;45.56
20862;DHT22;10591;52.532;13.348;2023-06-26T09:29:26;27.83;44.31
20862;DHT22;10591;52.532;13.348;2023-06-26T09:32:01;27.81;45.71
20862;DHT22;10591;52.532;13.348;2023-06-26T09:34:35;27.53;44.41
20862;DHT22;10591;52.532;13.348;2023-06-26T09:37:06;27.49;44.87
20862;DHT22;10591;52.532;13.348;2023-06-26T09:39:38;27.65;44.79
20862;DHT22;10591;52.532;13.348;2023-06-26T09:42:13;27.73;44.87
20862;DHT22;10591;52.532;13.348;2023-06-26T09:44:45;27.83;45.15
20862;DHT22;10591;52.532;13.348;2023-06-26T09:47:21;27.68;46.49
20862;DHT22;10591;52.532;13.348;2023-06-26T09:49:54;27.66;45.76
20862;DHT22;10591;52.532;13.348;2023-06-26T09:52:32;27.84;44.18
20862;DHT22;10591;52.532;13.348;2023-06-26T09:55:11;27.96;43.89
20862;DHT22;10591;52.532;13.348;2023-06-26T09:57:44;28.12;43.11
20862;DHT22;10591;52.532;13.348;2023-06-26T10:00:19;28.03;44.94
20862;DHT22;10591;52.532;13.348;2023-06-26T10:02:50;28.20;43.48
20862;DHT22;10591;52.532;13.348;2023-06-26T10:05:21;28.08;44.07
20862;DHT22;10591;52.532;13.348;2023-06-26T10:07:55;28.14;44.18
20862;DHT22;10591;52.532;13.348;2023-06-26T10:10:28;28.06;44.57
20862;DHT22;10591;52.532;13.348;2023-06-26T10:13:12;28.35;44.17
20862;DHT22;10591;52.532;13.348;2023-06-26T10:15:38;28.30;44.23
20862;DHT22;10591;52.532;13.348;2023-06-26T10:18:13;28.27;44.46
20862;DHT22;10591;52.532;13.348;2023-06-26T10:20:48;28.04;45.81
20862;DHT22;10591;52.532;13.348;2023-06-26T10:23:20;28.09;46.64
20862;DHT22;10591;52.532;13.348;2023-06-26T10:25:58;28.14;45.98
20862;DHT22;10591;52.532;13.348;2023-06-26T10:28:33;28.27;45.03
20862;DHT22;10591;52.532;13.348;2023-06-26T10:31:07;28.42;45.12
20862;DHT22;10591;52.532;13.348;2023-06-26T10:33:39;28.59;44.56
20862;DHT22;10591;52.532;13.348;2023-06-26T10:36:28;28.46;45.52
20862;DHT22;10591;52.532;13.348;2023-06-26T10:38:57;28.47;46.02
20862;DHT22;10591;52.532;13.348;2023-06-26T10:41:28;28.52;44.79
20862;DHT22;10591;52.532;13.348;2023-06-26T10:46:52;28.37;46.60
20862;DHT22;10591;52.532;13.348;2023-06-26T10:49:31;28.39;46.44
20862;DHT22;10591;52.532;13.348;2023-06-26T10:52:03;28.60;44.34
20862;DHT22;10591;52.532;13.348;2023-06-26T10:54:36;28.59;46.10
20862;DHT22;10591;52.532;13.348;2023-06-26T10:57:10;28.84;44.43
20862;DHT22;10591;52.532;13.348;2023-06-26T10:59:49;29.06;43.71
20862;DHT22;10591;52.532;13.348;2023-06-26T11:02:46;29.24;42.59
20862;DHT22;10591;52.532;13.348;2023-06-26T11:05:23;29.29;43.94
20862;DHT22;10591;52.532;13.348;2023-06-26T11:08:04;29.31;43.84
20862;DHT22;10591;52.532;13.348;2023-06-26T11:13:27;29.50;42.31
20862;DHT22;10591;52.532;13.348;2023-06-26T11:16:05;29.15;43.59
20862;DHT22;10591;52.532;13.348;2023-06-26T11:18:42;28.96;45.35
20862;DHT22;10591;52.532;13.348;2023-06-26T11:21:21;29.05;43.44
20862;DHT22;10591;52.532;13.348;2023-06-26T11:23:59;29.37;43.14
20862;DHT22;10591;52.532;13.348;2023-06-26T11:26:39;29.33;42.83
20862;DHT22;10591;52.532;13.348;2023-06-26T11:29:16;29.22;45.01
20862;DHT22;10591;52.532;13.348;2023-06-26T11:31:57;29.13;44.06
20862;DHT22;10591;52.532;13.348;2023-06-26T11:34:33;29.53;42.99
20862;DHT22;10591;52.532;13.348;2023-06-26T11:37:03;29.57;42.42
20862;DHT22;10591;52.532;13.348;2023-06-26T11:39:35;29.54;42.25
20862;DHT22;10591;52.532;13.348;2023-06-26T11:42:07;29.56;42.59
20862;DHT22;10591;52.532;13.348;2023-06-26T11:44:41;29.32;43.81
20862;DHT22;10591;52.532;13.348;2023-06-26T11:47:21;29.34;43.48
20862;DHT22;10591;52.532;13.348;2023-06-26T11:49:53;29.54;43.40
20862;DHT22;10591;52.532;13.348;2023-06-26T11:52:27;29.47;43.35
20862;DHT22;10591;52.532;13.348;2023-06-26T11:54:59;29.53;42.72
20862;DHT22;10591;52.532;13.348;2023-06-26T11:57:33;29.86;41.63
20862;DHT22;10591;52.532;13.348;2023-06-26T12:00:15;29.35;43.95
20862;DHT22;10591;52.532;13.348;2023-06-26T12:02:47;29.40;43.88
20862;DHT22;10591;52.532;13.348;2023-06-26T12:05:20;29.30;45.88
20862;DHT22;10591;52.532;13.348;2023-06-26T12:07:54;29.38;44.55
20862;DHT22;10591;52.532;13.348;2023-06-26T12:10:27;29.50;42.17
20862;DHT22;10591;52.532;13.348;2023-06-26T12:13:00;29.65;43.03
20862;DHT22;10591;52.532;13.348;2023-06-26T12:15:32;29.74;41.90
20862;DHT22;10591;52.532;13.348;2023-06-26T12:18:09;29.58;42.62
20862;DHT22;10591;52.532;13.348;2023-06-26T12:20:41;29.44;43.49
20862;DHT22;10591;52.532;13.348;2023-06-26T12:23:15;29.75;42.81
20862;DHT22;10591;52.532;13.348;2023-06-26T12:25:47;30.10;40.56
20862;DHT22;10591;52.532;13.348;2023-06-26T12:28:20;30.06;43.19
20862;DHT22;10591;52.532;13.348;2023-06-26T12:31:16;30.58;40.48
20862;DHT22;10591;52.532;13.348;2023-06-26T12:33:43;30.48;41.63
20862;DHT22;10591;52.532;13.348;2023-06-26T12:36:16;30.37;40.63
20862;DHT22;10591;52.532;13.348;2023-06-26T12:38:49;30.47;40.98
20862;DHT22;10591;52.532;13.348;2023-06-26T12:41:23;30.51;40.74
20862;DHT22;10591;52.532;13.348;2023-06-26T12:43:57;30.13;41.12
20862;DHT22;10591;52.532;13.348;2023-06-26T12:46:36;30.11;41.11
20862;DHT22;10591;52.532;13.348;2023-06-26T12:49:08;30.22;41.09
20862;DHT22;10591;52.532;13.348;2023-06-26T12:51:43;29.90;43.23
20862;DHT22;10591;52.532;13.348;2023-06-26T12:54:15;30.25;41.54
20862;DHT22;10591;52.532;13.348;2023-06-26T12:56:47;30.36;41.76
20862;DHT22;10591;52.532;13.348;2023-06-26T12:59:25;30.44;41.08
20862;DHT22;10591;52.532;13.348;2023-06-26T13:01:52;30.41;41.01
20862;DHT22;10591;52.532;13.348;2023-06-26T13:04:24;30.50;41.23
20862;DHT22;10591;52.532;13.348;2023-06-26T13:06:56;30.53;42.42
20862;DHT22;10591;52.532;13.348;2023-06-26T13:09:32;30.20;43.06
20862;DHT22;10591;52.532;13.348;2023-06-26T13:12:04;30.36;42.30
20862;DHT22;10591;52.532;13.348;2023-06-26T13:14:38;30.58;41.64
20862;DHT22;10591;52.532;13.348;2023-06-26T13:17:10;30.32;41.10
20862;DHT22;10591;52.532;13.348;2023-06-26T13:19:42;30.21;42.01
20862;DHT22;10591;52.532;13.348;2023-06-26T13:22:13;29.77;43.05
20862;DHT22;10591;52.532;13.348;2023-06-26T13:24:44;29.95;42.12
20862;DHT22;10591;52.532;13.348;2023-06-26T13:27:17;29.83;43.87
20862;DHT22;10591;52.532;13.348;2023-06-26T13:29:49;29.84;43.13
20862;DHT22;10591;52.532;13.348;2023-06-26T13:32:20;29.66;42.56
20862;DHT22;10591;52.532;13.348;2023-06-26T13:34:53;29.52;43.83
20862;DHT22;10591;52.532;13.348;2023-06-26T13:37:26;29.41;44.49
20862;DHT22;10591;52.532;13.348;2023-06-26T13:40:01;29.15;45.40
20862;DHT22;10591;52.532;13.348;2023-06-26T13:42:34;28.82;46.86
20862;DHT22;10591;52.532;13.348;2023-06-26T13:45:07;28.64;47.10
20862;DHT22;10591;52.532;13.348;2023-06-26T13:47:43;28.42;47.34
20862;DHT22;10591;52.532;13.348;2023-06-26T13:50:13;28.22;48.66
20862;DHT22;10591;52.532;13.348;2023-06-26T13:52:47;28.74;44.85
20862;DHT22;10591;52.532;13.348;2023-06-26T13:55:17;28.92;44.37
20862;DHT22;10591;52.532;13.348;2023-06-26T13:57:50;28.88;44.64
20862;DHT22;10591;52.532;13.348;2023-06-26T14:00:22;28.93;44.17
20862;DHT22;10591;52.532;13.348;2023-06-26T14:02:54;28.83;44.43
20862;DHT22;10591;52.532;13.348;2023-06-26T14:05:27;28.32;48.41
20862;DHT22;10591;52.532;13.348;2023-06-26T14:08:07;28.07;49.23
20862;DHT22;10591;52.532;13.348;2023-06-26T14:10:40;27.84;49.65
20862;DHT22;10591;52.532;13.348;2023-06-26T14:13:12;27.22;50.48
20862;DHT22;10591;52.532;13.348;2023-06-26T14:15:44;26.90;51.99
20862;DHT22;10591;52.532;13.348;2023-06-26T14:18:18;26.45;54.69
20862;DHT22;10591;52.532;13.348;2023-06-26T14:20:52;25.97;58.33
20862;DHT22;10591;52.532;13.348;2023-06-26T14:23:28;25.09;65.11
20862;DHT22;10591;52.532;13.348;2023-06-26T14:26:01;24.46;71.54
20862;DHT22;10591;52.532;13.348;2023-06-26T14:28:32;23.82;72.87
20862;DHT22;10591;52.532;13.348;2023-06-26T14:31:05;23.13;75.10
20862;DHT22;10591;52.532;13.348;2023-06-26T14:33:39;22.70;75.66
20862;DHT22;10591;52.532;13.348;2023-06-26T14:36:11;22.29;77.46
20862;DHT22;10591;52.532;13.348;2023-06-26T14:38:45;22.01;78.47
20862;DHT22;10591;52.532;13.348;2023-06-26T14:41:17;21.56;81.16
20862;DHT22;10591;52.532;13.348;2023-06-26T14:43:53;21.12;82.02
20862;DHT22;10591;52.532;13.348;2023-06-26T14:46:25;21.18;82.64
20862;DHT22;10591;52.532;13.348;2023-06-26T14:48:58;20.98;83.11
20862;DHT22;10591;52.532;13.348;2023-06-26T14:51:31;21.01;82.65
20862;DHT22;10591;52.532;13.348;2023-06-26T14:54:04;21.28;84.08
20862;DHT22;10591;52.532;13.348;2023-06-26T14:56:36;21.32;84.11
20862;DHT22;10591;52.532;13.348;2023-06-26T14:59:09;21.39;84.70
20862;DHT22;10591;52.532;13.348;2023-06-26T15:01:42;21.34;84.94
20862;DHT22;10591;52.532;13.348;2023-06-26T15:04:15;20.89;84.93
20862;DHT22;10591;52.532;13.348;2023-06-26T15:06:49;20.29;86.72
20862;DHT22;10591;52.532;13.348;2023-06-26T15:09:21;19.98;87.27
20862;DHT22;10591;52.532;13.348;2023-06-26T15:11:53;19.62;87.48
20862;DHT22;10591;52.532;13.348;2023-06-26T15:14:25;19.40;87.47
20862;DHT22;10591;52.532;13.348;2023-06-26T15:16:56;19.22;87.48
20862;DHT22;10591;52.532;13.348;2023-06-26T15:19:28;19.28;87.47
20862;DHT22;10591;52.532;13.348;2023-06-26T15:22:02;19.22;87.44
20862;DHT22;10591;52.532;13.348;2023-06-26T15:24:34;19.10;87.36
20862;DHT22;10591;52.532;13.348;2023-06-26T15:27:06;19.22;87.29
20862;DHT22;10591;52.532;13.348;2023-06-26T15:29:38;19.34;87.32
20862;DHT22;10591;52.532;13.348;2023-06-26T15:32:13;19.65;87.20
20862;DHT22;10591;52.532;13.348;2023-06-26T15:34:45;19.88;87.11
20862;DHT22;10591;52.532;13.348;2023-06-26T15:37:18;20.20;87.08
20862;DHT22;10591;52.532;13.348;2023-06-26T15:39:51;20.24;86.88
20862;DHT22;10591;52.532;13.348;2023-06-26T15:42:28;20.52;86.70
20862;DHT22;10591;52.532;13.348;2023-06-26T15:45:00;20.67;86.31
20862;DHT22;10591;52.532;13.348;2023-06-26T15:47:33;20.81;85.73
20862;DHT22;10591;52.532;13.348;2023-06-26T15:50:08;21.10;85.97
20862;DHT22;10591;52.532;13.348;2023-06-26T15:52:40;21.22;85.61
20862;DHT22;10591;52.532;13.348;2023-06-26T15:55:11;20.99;85.01
20862;DHT22;10591;52.532;13.348;2023-06-26T15:57:43;21.08;84.69